Time;durP1;ratioP1;P1;durP2;ratioP2;P2;SDS_P1;SDS_P2;PMS_P1;PMS_P2;Temp;Humidity;BMP_temperature;BMP_pressure;BME280_temperature;BME280_humidity;BME280_pressure;Samples;Min_cycle;Max_cycle;Signal;HPM_P1;HPM_P2
2023/10/10 00:02:18;;;;;;;6.85;3.70;;;18.60;61.00;;;;;;4994088;28;20221;-62
2023/10/10 00:04:47;;;;;;;5.28;3.92;;;18.60;60.90;;;;;;4993887;28;20216;-64
2023/10/10 00:07:16;;;;;;;6.50;3.53;;;18.60;60.80;;;;;;4993645;28;20218;-64
2023/10/10 00:09:50;;;;;;;5.13;3.25;;;18.60;60.80;;;;;;5015468;28;20723;-64
2023/10/10 00:12:25;;;;;;;6.18;4.05;;;18.60;60.80;;;;;;5074321;28;20222;-64
2023/10/10 00:14:57;;;;;;;6.03;3.90;;;18.60;60.70;;;;;;5075427;28;20224;-65
2023/10/10 00:17:29;;;;;;;6.72;4.10;;;18.60;61.50;;;;;;5075153;28;20218;-65
2023/10/10 00:19:56;;;;;;;6.80;3.58;;;18.60;61.50;;;;;;5075206;28;20195;-64
2023/10/10 00:22:35;;;;;;;6.82;3.55;;;18.60;60.70;;;;;;5075165;28;20191;-64
2023/10/10 00:25:12;;;;;;;7.63;3.38;;;18.60;60.70;;;;;;5074605;28;20186;-64
2023/10/10 00:27:43;;;;;;;5.63;3.78;;;18.60;60.60;;;;;;5074943;28;20234;-65
2023/10/10 00:30:12;;;;;;;5.88;3.60;;;18.60;60.60;;;;;;5074875;28;20257;-64
2023/10/10 00:32:45;;;;;;;5.10;3.40;;;18.60;60.50;;;;;;5074787;28;20194;-64
2023/10/10 00:35:12;;;;;;;7.20;3.35;;;18.60;60.40;;;;;;5074902;28;20198;-62
2023/10/10 00:37:46;;;;;;;4.75;3.13;;;18.60;60.30;;;;;;5074561;28;20279;-63
2023/10/10 00:40:15;;;;;;;5.03;3.22;;;18.60;60.30;;;;;;5074321;28;20191;-64
2023/10/10 00:42:42;;;;;;;5.75;3.47;;;18.60;60.30;;;;;;5074790;28;20187;-64
2023/10/10 00:45:14;;;;;;;6.20;3.58;;;18.60;60.20;;;;;;5074723;28;20187;-64
2023/10/10 00:47:45;;;;;;;5.38;3.78;;;18.60;60.20;;;;;;5074296;28;20687;-64
2023/10/10 00:50:16;;;;;;;6.75;3.47;;;18.60;60.20;;;;;;5074318;28;20218;-64
2023/10/10 00:52:48;;;;;;;5.65;3.28;;;18.60;60.10;;;;;;5074673;28;20238;-64
2023/10/10 00:55:21;;;;;;;6.05;3.40;;;18.60;60.10;;;;;;5074080;28;20269;-63
2023/10/10 00:57:52;;;;;;;6.20;3.25;;;18.60;60.00;;;;;;5074575;28;20186;-63
2023/10/10 01:00:25;;;;;;;5.07;3.40;;;18.60;60.00;;;;;;5074125;28;20611;-65
2023/10/10 01:03:06;;;;;;;6.30;3.85;;;18.60;59.90;;;;;;5074292;28;20190;-64
2023/10/10 01:05:44;;;;;;;4.75;3.40;;;18.50;59.80;;;;;;5074285;28;20713;-64
2023/10/10 01:09:33;;;;;;;;;;;;;;;;;;;;;
2023/10/10 01:12:04;;;;;;;4.38;3.10;;;18.60;59.80;;;;;;5064549;28;20237;-65
2023/10/10 01:14:32;;;;;;;5.38;3.30;;;18.60;59.80;;;;;;5073771;28;20199;-64
2023/10/10 01:17:00;;;;;;;7.18;3.30;;;18.60;59.80;;;;;;5073865;28;20219;-63
2023/10/10 01:19:29;;;;;;;5.47;3.53;;;18.60;59.80;;;;;;5074274;28;20562;-64
2023/10/10 01:21:59;;;;;;;5.75;3.35;;;18.50;59.60;;;;;;5073929;28;20229;-65
2023/10/10 01:24:27;;;;;;;5.03;3.25;;;18.60;59.70;;;;;;5073768;28;20222;-63
2023/10/10 01:27:03;;;;;;;6.15;3.40;;;18.60;59.70;;;;;;5073639;28;20799;-64
2023/10/10 01:29:40;;;;;;;7.05;4.15;;;18.60;59.70;;;;;;5073574;28;20186;-63
2023/10/10 01:34:49;;;;;;;5.45;3.20;;;18.50;59.50;;;;;;5069231;28;20202;-64
2023/10/10 01:37:21;;;;;;;5.30;3.30;;;18.50;59.50;;;;;;5074053;28;20219;-64
2023/10/10 01:40:01;;;;;;;5.43;3.22;;;18.50;59.50;;;;;;5073228;28;20653;-62
2023/10/10 01:42:37;;;;;;;5.63;3.25;;;18.60;59.60;;;;;;5073764;28;20223;-65
2023/10/10 01:45:07;;;;;;;5.00;3.03;;;18.50;59.50;;;;;;5073827;28;20187;-63
2023/10/10 01:47:35;;;;;;;4.50;3.17;;;18.60;59.50;;;;;;5072902;28;20194;-64
2023/10/10 01:50:07;;;;;;;4.25;3.25;;;18.60;59.40;;;;;;5073016;28;20282;-64
2023/10/10 01:52:43;;;;;;;4.78;3.30;;;18.60;59.30;;;;;;5073164;28;20740;-63
2023/10/10 01:55:11;;;;;;;5.28;3.40;;;18.50;59.30;;;;;;5073136;28;20194;-63
2023/10/10 01:57:51;;;;;;;6.00;3.45;;;18.60;59.20;;;;;;5021354;28;20198;-64
2023/10/10 02:00:26;;;;;;;4.93;3.10;;;18.50;59.10;;;;;;5073111;28;20194;-64
2023/10/10 02:02:54;;;;;;;6.20;3.03;;;18.50;59.00;;;;;;5072887;28;20641;-64
2023/10/10 02:05:32;;;;;;;6.63;3.55;;;18.60;59.10;;;;;;5073205;28;20594;-64
2023/10/10 02:08:03;;;;;;;5.53;3.05;;;18.60;59.10;;;;;;5073089;28;20256;-64
2023/10/10 02:10:32;;;;;;;5.47;3.17;;;18.50;59.00;;;;;;5072868;28;20237;-64
2023/10/10 02:13:00;;;;;;;4.47;2.88;;;18.50;59.00;;;;;;5073199;28;20256;-64
2023/10/10 02:15:32;;;;;;;4.22;3.00;;;18.50;59.00;;;;;;5072763;28;20231;-64
2023/10/10 02:18:05;;;;;;;6.10;3.40;;;18.50;59.00;;;;;;5072662;28;20675;-63
2023/10/10 02:20:45;;;;;;;4.95;2.90;;;18.50;59.00;;;;;;5072494;28;20194;-64
2023/10/10 02:29:48;;;;;;;4.53;2.80;;;18.50;59.00;;;;;;4950221;28;20325;-63
2023/10/10 02:32:19;;;;;;;6.70;3.40;;;18.50;59.00;;;;;;4971372;28;20242;-63
2023/10/10 02:34:56;;;;;;;5.15;3.25;;;18.50;59.00;;;;;;4971510;28;20194;-65
2023/10/10 02:40:14;;;;;;;4.82;2.78;;;18.50;58.90;;;;;;4971346;28;20202;-64
2023/10/10 02:43:17;;;;;;;5.03;2.80;;;18.50;58.90;;;;;;4971605;28;20195;-64
2023/10/10 02:45:37;;;;;;;3.92;2.85;;;18.50;58.90;;;;;;4971240;28;20313;-63
2023/10/10 02:48:07;;;;;;;6.45;3.20;;;18.50;58.90;;;;;;4971640;28;20203;-65
2023/10/10 02:50:42;;;;;;;4.75;3.20;;;18.50;58.90;;;;;;4971145;28;20222;-62
2023/10/10 02:53:09;;;;;;;4.53;2.92;;;18.50;58.90;;;;;;4970959;28;20189;-64
2023/10/10 02:55:50;;;;;;;5.13;3.25;;;18.50;58.90;;;;;;4971300;28;20626;-63
2023/10/10 02:58:21;;;;;;;5.72;3.28;;;18.50;58.80;;;;;;4971293;28;20602;-64
2023/10/10 03:00:57;;;;;;;4.05;2.90;;;18.50;58.80;;;;;;5009031;28;20265;-64
2023/10/10 03:03:25;;;;;;;5.07;3.20;;;18.50;58.80;;;;;;5052265;28;20188;-63
2023/10/10 03:05:54;;;;;;;5.28;2.85;;;18.50;58.70;;;;;;5052195;28;20235;-64
2023/10/10 03:08:36;;;;;;;5.93;3.35;;;18.50;58.70;;;;;;5052035;28;20556;-64
2023/10/10 03:11:14;;;;;;;6.70;2.85;;;18.50;58.70;;;;;;5050383;28;20242;-64
2023/10/10 03:13:54;;;;;;;6.50;3.38;;;18.50;58.60;;;;;;5051431;28;20287;-64
2023/10/10 03:16:43;;;;;;;6.35;3.53;;;18.50;58.60;;;;;;5051554;28;20265;-64
2023/10/10 03:19:25;;;;;;;4.85;3.30;;;18.40;58.60;;;;;;5052094;28;20210;-64
2023/10/10 03:22:19;;;;;;;4.70;3.05;;;18.40;58.50;;;;;;5051728;28;20219;-65
2023/10/10 03:30:30;;;;;;;4.65;3.08;;;18.40;58.50;;;;;;5064495;28;20206;-65
2023/10/10 03:33:09;;;;;;;8.02;2.90;;;18.40;58.50;;;;;;5071674;28;20195;-64
2023/10/10 05:25:41;;;;;;;5.72;3.25;;;18.30;58.40;;;;;;5012184;28;20228;-64
2023/10/10 05:28:09;;;;;;;5.43;3.20;;;18.40;58.60;;;;;;5011288;28;20225;-62
2023/10/10 05:30:44;;;;;;;4.47;2.90;;;18.30;58.50;;;;;;5011938;28;20208;-64
2023/10/10 05:35:59;;;;;;;4.85;3.17;;;18.30;59.10;;;;;;5011448;28;20240;-63
2023/10/10 05:38:26;;;;;;;6.18;3.28;;;18.30;58.50;;;;;;5011485;28;20197;-64
2023/10/10 05:40:56;;;;;;;6.45;3.05;;;18.40;58.60;;;;;;5011503;28;20288;-63
2023/10/10 05:43:33;;;;;;;5.68;2.95;;;18.40;58.60;;;;;;5011422;28;20202;-64
2023/10/10 05:46:01;;;;;;;6.00;3.58;;;18.40;58.60;;;;;;5011419;28;20189;-64
2023/10/10 05:48:32;;;;;;;6.32;3.33;;;18.30;58.60;;;;;;5021077;28;20657;-63
2023/10/10 05:51:00;;;;;;;4.57;3.17;;;18.40;58.70;;;;;;5052934;28;20215;-64
2023/10/10 05:53:32;;;;;;;4.97;3.08;;;18.40;58.80;;;;;;5053183;28;20231;-62
2023/10/10 05:56:12;;;;;;;6.47;3.38;;;18.40;58.80;;;;;;5053170;28;20187;-64
2023/10/10 05:58:44;;;;;;;6.38;3.22;;;18.30;58.70;;;;;;5053146;28;20187;-64
2023/10/10 06:01:13;;;;;;;4.78;3.22;;;18.40;58.90;;;;;;5053105;28;20222;-64
2023/10/10 06:03:42;;;;;;;4.97;3.05;;;18.40;58.90;;;;;;5053314;28;20191;-64
2023/10/10 06:06:12;;;;;;;7.22;3.50;;;18.30;58.80;;;;;;5052998;28;20297;-63
2023/10/10 06:08:44;;;;;;;7.10;3.50;;;18.40;58.90;;;;;;5053021;28;20650;-64
2023/10/10 06:11:23;;;;;;;;;;;;;;;;;;;;;
2023/10/10 06:14:27;;;;;;;5.95;3.42;;;18.30;58.80;;;;;;5001421;28;20203;-64
2023/10/10 06:16:56;;;;;;;7.68;3.63;;;18.30;58.80;;;;;;5048364;28;20261;-65
2023/10/10 06:19:24;;;;;;;4.80;2.90;;;18.30;58.80;;;;;;5053079;28;20192;-65
2023/10/10 06:21:59;;;;;;;5.78;3.83;;;18.30;58.80;;;;;;5052439;28;20284;-64
2023/10/10 06:24:27;;;;;;;6.97;3.30;;;18.30;58.80;;;;;;5052998;28;20219;-64
2023/10/10 06:27:00;;;;;;;4.78;3.28;;;18.30;58.80;;;;;;5052835;28;20215;-63
2023/10/10 06:29:29;;;;;;;9.55;3.85;;;18.40;58.90;;;;;;5070581;28;20307;-64
2023/10/10 06:32:10;;;;;;;7.82;3.28;;;18.30;58.80;;;;;;5072997;28;20230;-63
2023/10/10 06:34:41;;;;;;;4.05;2.60;;;18.30;58.90;;;;;;5072703;28;20671;-65
2023/10/10 06:37:13;;;;;;;5.85;3.33;;;18.30;58.80;;;;;;5072586;28;20297;-64
2023/10/10 06:39:54;;;;;;;4.38;2.97;;;18.30;58.90;;;;;;5072473;28;20194;-65
2023/10/10 06:42:27;;;;;;;5.65;3.30;;;18.30;58.90;;;;;;5072080;28;20700;-63
2023/10/10 06:44:55;;;;;;;6.50;3.03;;;18.30;58.80;;;;;;5072382;28;20228;-64
2023/10/10 06:47:28;;;;;;;5.00;3.28;;;18.30;58.90;;;;;;5072565;28;20211;-64
2023/10/10 06:49:56;;;;;;;6.00;3.40;;;18.40;58.90;;;;;;5072273;28;20187;-62
2023/10/10 06:52:27;;;;;;;5.65;3.08;;;18.40;58.90;;;;;;5066414;28;20237;-63
2023/10/10 06:54:54;;;;;;;6.00;3.22;;;18.40;58.90;;;;;;5071236;28;20204;-64
2023/10/10 06:57:35;;;;;;;5.03;3.38;;;18.30;58.90;;;;;;5071752;28;20226;-64
2023/10/10 07:00:17;;;;;;;5.03;3.17;;;18.30;58.90;;;;;;5071827;28;20652;-63
2023/10/10 07:02:49;;;;;;;5.50;2.75;;;18.30;58.90;;;;;;5071959;28;20210;-65
2023/10/10 07:05:19;;;;;;;6.32;3.88;;;18.30;59.00;;;;;;5071798;28;20190;-64
2023/10/10 07:07:52;;;;;;;6.70;3.35;;;18.30;59.10;;;;;;5072553;28;20305;-64
2023/10/10 07:10:26;;;;;;;4.72;3.05;;;18.30;59.10;;;;;;5072135;28;20802;-65
2023/10/10 07:12:57;;;;;;;6.15;3.28;;;18.30;59.20;;;;;;5072000;28;20315;-64
2023/10/10 07:15:25;;;;;;;6.25;3.75;;;18.30;59.20;;;;;;5072017;28;20191;-64
2023/10/10 07:18:08;;;;;;;4.60;3.13;;;18.30;59.30;;;;;;5072477;28;20215;-64
2023/10/10 07:23:21;;;;;;;5.38;3.25;;;18.30;59.40;;;;;;5072087;28;20606;-63
2023/10/10 07:25:59;;;;;;;6.00;3.50;;;18.30;59.50;;;;;;5072216;28;20197;-63
2023/10/10 07:31:34;;;;;;;5.43;3.22;;;18.30;59.60;;;;;;5038015;28;20202;-63
2023/10/10 07:34:15;;;;;;;5.28;3.30;;;18.30;59.70;;;;;;5027597;28;20199;-63
2023/10/10 07:36:43;;;;;;;6.10;3.38;;;18.30;59.70;;;;;;5072060;28;20261;-64
2023/10/10 07:42:12;;;;;;;5.25;3.15;;;18.30;59.80;;;;;;5071542;28;20296;-64
2023/10/10 07:44:41;;;;;;;6.28;3.95;;;18.30;59.80;;;;;;5070561;28;20290;-64
2023/10/10 07:47:25;;;;;;;5.53;3.80;;;18.30;59.80;;;;;;5074147;28;20257;-64
2023/10/10 07:49:54;;;;;;;6.07;3.70;;;18.30;59.90;;;;;;5075296;28;20230;-65
2023/10/10 07:52:22;;;;;;;5.45;3.60;;;18.30;60.00;;;;;;5076040;28;20236;-63
2023/10/10 07:54:53;;;;;;;6.60;4.00;;;18.30;60.00;;;;;;5075505;28;20220;-64
2023/10/10 07:57:26;;;;;;;6.18;3.20;;;18.30;60.10;;;;;;5075748;28;20297;-63
2023/10/10 07:59:57;;;;;;;6.50;3.67;;;18.30;60.20;;;;;;5075667;28;20194;-64
2023/10/10 08:02:31;;;;;;;5.22;3.38;;;18.40;60.30;;;;;;5063717;28;20211;-63
2023/10/10 08:05:09;;;;;;;5.68;3.40;;;18.40;60.20;;;;;;5060080;28;20202;-64
2023/10/10 08:07:38;;;;;;;4.85;3.08;;;18.40;60.30;;;;;;5068108;28;20222;-65
2023/10/10 08:10:13;;;;;;;7.50;3.42;;;18.40;60.20;;;;;;5071241;28;20203;-65
2023/10/10 08:15:25;;;;;;;5.40;3.53;;;18.50;60.10;;;;;;5069851;28;20232;-65
2023/10/10 08:17:54;;;;;;;5.93;3.42;;;18.60;60.20;;;;;;5071666;28;20254;-63
2023/10/10 08:20:37;;;;;;;5.25;3.30;;;18.60;60.10;;;;;;5071478;28;20202;-66
2023/10/10 08:29:22;;;;;;;7.60;3.65;;;18.80;60.20;;;;;;5049854;28;20238;-64
2023/10/10 08:31:58;;;;;;;5.47;3.65;;;18.80;60.20;;;;;;5070619;28;20238;-65
2023/10/10 08:34:26;;;;;;;8.50;3.85;;;18.80;60.10;;;;;;5067670;28;20196;-65
2023/10/10 08:37:02;;;;;;;6.30;3.70;;;18.90;60.10;;;;;;5070661;28;20701;-64
2023/10/10 08:39:35;;;;;;;6.95;3.60;;;18.90;60.20;;;;;;5069137;28;20271;-64
2023/10/10 08:42:10;;;;;;;4.75;3.20;;;19.00;60.30;;;;;;5069371;28;20226;-65
2023/10/10 08:44:40;;;;;;;6.20;3.53;;;19.00;60.20;;;;;;5070820;28;20675;-64
2023/10/10 08:47:10;;;;;;;4.55;3.28;;;19.00;60.30;;;;;;5070878;28;20218;-64
2023/10/10 08:50:06;;;;;;;4.32;3.10;;;19.00;60.40;;;;;;5069658;28;20191;-64
2023/10/10 08:52:38;;;;;;;5.95;3.70;;;19.10;60.50;;;;;;5061324;28;20238;-63
2023/10/10 08:55:10;;;;;;;5.90;3.20;;;19.10;60.40;;;;;;5069232;28;20231;-64
2023/10/10 08:58:18;;;;;;;5.25;3.92;;;19.10;60.40;;;;;;5055156;28;20222;-61
2023/10/10 09:00:46;;;;;;;5.95;3.53;;;19.10;60.50;;;;;;5043688;28;20253;-64
2023/10/10 09:03:13;;;;;;;4.80;3.15;;;19.10;60.50;;;;;;5067745;28;20218;-63
2023/10/10 09:05:41;;;;;;;6.03;3.72;;;19.20;60.60;;;;;;5070532;28;20191;-64
2023/10/10 09:08:15;;;;;;;6.65;3.30;;;19.20;60.60;;;;;;5070347;28;20223;-65
2023/10/10 09:10:46;;;;;;;6.75;3.60;;;19.20;60.50;;;;;;5070055;28;20194;-64
2023/10/10 09:13:14;;;;;;;6.30;3.65;;;19.20;60.50;;;;;;5070540;28;20234;-64
2023/10/10 09:18:40;;;;;;;6.72;3.45;;;19.20;60.80;;;;;;5069625;28;20280;-62
2023/10/10 09:21:44;;;;;;;6.18;3.50;;;19.20;60.90;;;;;;5070079;28;20187;-63
2023/10/10 09:24:27;;;;;;;6.30;3.53;;;19.20;60.90;;;;;;5067608;28;20259;-64
2023/10/10 09:26:56;;;;;;;8.13;3.67;;;19.20;61.00;;;;;;5068224;28;20214;-62
2023/10/10 09:29:42;;;;;;;5.63;3.75;;;19.20;61.00;;;;;;5065493;28;20610;-62
2023/10/10 09:32:13;;;;;;;7.15;3.38;;;19.20;61.00;;;;;;5066221;28;20246;-64
2023/10/10 09:34:43;;;;;;;6.40;3.47;;;19.20;61.00;;;;;;5047911;28;21420;-64
2023/10/10 09:37:17;;;;;;;7.18;3.40;;;19.20;61.00;;;;;;5036294;28;20227;-64
2023/10/10 09:39:54;;;;;;;4.60;3.35;;;19.20;61.00;;;;;;5069960;28;20240;-63
2023/10/10 09:45:25;;;;;;;7.35;3.22;;;19.20;61.10;;;;;;5065218;28;20198;-62
2023/10/10 09:47:56;;;;;;;5.22;3.63;;;19.30;61.30;;;;;;5069482;28;20230;-65
2023/10/10 09:50:45;;;;;;;5.13;3.20;;;19.30;62.10;;;;;;5069569;28;20608;-63
2023/10/10 09:53:23;;;;;;;5.90;3.28;;;19.30;61.40;;;;;;5063722;28;20269;-64
2023/10/10 09:56:01;;;;;;;6.28;3.67;;;19.30;61.30;;;;;;5068043;28;20198;-60
2023/10/10 09:58:29;;;;;;;5.45;3.30;;;19.30;61.30;;;;;;5066755;28;20249;-64
2023/10/10 10:01:12;;;;;;;6.22;3.17;;;19.30;61.40;;;;;;5066016;28;20202;-63
2023/10/10 10:03:49;;;;;;;4.97;3.20;;;19.30;61.40;;;;;;5064530;28;20276;-62
2023/10/10 10:07:13;;;;;;;5.07;3.15;;;19.30;61.40;;;;;;5059040;28;20247;-63
2023/10/10 10:13:19;;;;;;;5.25;3.20;;;19.30;61.50;;;;;;4928653;29;20235;-64
2023/10/10 10:16:15;;;;;;;5.65;3.22;;;19.30;61.50;;;;;;4929916;29;20202;-62
2023/10/10 10:18:47;;;;;;;5.72;3.28;;;19.30;61.50;;;;;;4920635;29;20204;-63
2023/10/10 10:21:31;;;;;;;5.80;3.55;;;19.30;61.60;;;;;;4929422;29;20204;-62
2023/10/10 10:26:43;;;;;;;4.95;3.47;;;19.30;61.60;;;;;;4928662;29;20240;-64
2023/10/10 10:29:36;;;;;;;4.75;3.30;;;19.40;61.60;;;;;;4929103;29;20276;-62
2023/10/10 10:32:10;;;;;;;5.78;3.63;;;19.40;61.70;;;;;;4928263;29;20283;-62
2023/10/10 10:34:55;;;;;;;;;;;;;;;;;;;;;
2023/10/10 10:37:28;;;;;;;5.97;3.80;;;19.40;61.70;;;;;;4947990;29;20215;-63
2023/10/10 10:42:47;;;;;;;5.47;3.40;;;19.40;61.80;;;;;;4948226;28;20257;-62
2023/10/10 10:45:38;;;;;;;6.63;3.53;;;19.40;61.80;;;;;;4989693;28;20203;-62
2023/10/10 10:48:08;;;;;;;6.07;3.33;;;19.40;61.90;;;;;;5052652;28;20679;-62
2023/10/10 10:50:46;;;;;;;4.78;3.50;;;19.40;61.80;;;;;;5068360;28;20187;-63
2023/10/10 10:53:30;;;;;;;5.30;3.55;;;19.40;62.00;;;;;;5068805;28;20210;-62
2023/10/10 10:59:11;;;;;;;6.00;3.58;;;19.40;61.90;;;;;;4986241;28;20206;-63
2023/10/10 11:01:45;;;;;;;4.93;3.20;;;19.50;61.90;;;;;;5004252;28;20208;-62
2023/10/10 11:04:24;;;;;;;4.63;3.30;;;19.50;62.00;;;;;;4993510;28;20648;-63
2023/10/10 11:06:52;;;;;;;5.63;3.67;;;19.50;62.00;;;;;;4986538;28;20331;-61
2023/10/10 11:09:34;;;;;;;4.10;3.33;;;19.50;62.10;;;;;;4986186;28;20205;-63
2023/10/10 11:12:04;;;;;;;7.82;3.47;;;19.50;62.20;;;;;;4986385;28;20233;-61
2023/10/10 11:14:33;;;;;;;6.05;3.75;;;19.50;62.10;;;;;;4986052;28;20242;-62
2023/10/10 11:17:03;;;;;;;8.38;4.28;;;19.50;62.10;;;;;;4986127;28;20210;-62
2023/10/10 11:19:46;;;;;;;4.57;3.35;;;19.40;62.00;;;;;;4992290;28;20316;-63
2023/10/10 11:22:39;;;;;;;5.35;3.50;;;19.50;62.10;;;;;;4986812;28;20206;-63
2023/10/10 11:28:21;;;;;;;4.93;3.47;;;19.50;62.10;;;;;;4999437;28;20705;-63
2023/10/10 11:31:23;;;;;;;5.78;3.33;;;19.50;62.20;;;;;;4960965;28;20331;-63
2023/10/10 11:34:10;;;;;;;4.88;3.63;;;19.50;62.20;;;;;;4968844;28;20273;-62
2023/10/10 11:36:51;;;;;;;6.22;3.50;;;19.60;62.30;;;;;;4970076;28;20214;-63
2023/10/10 11:43:17;;;;;;;6.03;3.55;;;19.50;62.20;;;;;;4931821;29;20781;-63
2023/10/10 11:45:51;;;;;;;4.55;3.63;;;19.50;62.30;;;;;;4931765;29;20251;-63
2023/10/10 11:48:18;;;;;;;8.80;3.88;;;19.60;62.30;;;;;;4908520;29;20740;-63
2023/10/10 11:51:02;;;;;;;5.28;3.67;;;19.50;62.30;;;;;;4898342;29;20240;-63
2023/10/10 11:53:30;;;;;;;5.30;3.78;;;19.50;62.40;;;;;;4918115;29;20279;-63
2023/10/10 11:56:02;;;;;;;5.35;3.72;;;19.60;62.50;;;;;;4931542;29;20315;-63
2023/10/10 11:58:36;;;;;;;4.75;3.70;;;19.60;62.50;;;;;;4922146;29;20204;-63
2023/10/10 12:01:07;;;;;;;7.53;3.70;;;19.60;62.50;;;;;;4931160;29;20310;-63
2023/10/10 12:03:42;;;;;;;5.22;3.50;;;19.60;62.50;;;;;;4934605;28;20202;-63
2023/10/10 12:06:16;;;;;;;6.28;3.90;;;19.60;62.50;;;;;;4967510;28;20230;-63
2023/10/10 12:08:46;;;;;;;4.95;3.20;;;19.60;62.60;;;;;;4973027;28;20201;-62
2023/10/10 12:11:22;;;;;;;6.95;3.42;;;19.60;62.50;;;;;;4971998;28;20388;-63
2023/10/10 12:13:50;;;;;;;8.57;3.80;;;19.60;62.40;;;;;;5046186;28;20226;-64
2023/10/10 12:23:31;;;;;;;7.93;3.72;;;19.60;62.30;;;;;;5070743;28;20178;-65
2023/10/10 12:26:03;;;;;;;6.00;4.15;;;19.70;62.40;;;;;;5067019;28;20232;-65
2023/10/10 12:28:30;;;;;;;5.90;3.65;;;19.70;62.50;;;;;;5068408;28;20252;-66
2023/10/10 12:31:00;;;;;;;8.93;3.70;;;19.70;62.60;;;;;;5068197;28;20218;-66
2023/10/10 12:33:28;;;;;;;6.72;3.95;;;19.70;62.70;;;;;;5058313;28;20348;-62
2023/10/10 12:35:56;;;;;;;4.30;3.63;;;19.70;62.60;;;;;;5068344;28;20218;-65
2023/10/10 12:41:46;;;;;;;5.22;4.15;;;19.70;62.50;;;;;;4975863;28;20226;-66
2023/10/10 12:44:16;;;;;;;5.90;4.57;;;19.70;62.70;;;;;;4986794;28;20286;-65
2023/10/10 12:46:43;;;;;;;7.57;4.10;;;19.70;62.80;;;;;;5062465;28;20221;-64
2023/10/10 12:49:13;;;;;;;5.95;3.92;;;19.70;62.80;;;;;;5070099;28;20195;-64
2023/10/10 12:51:44;;;;;;;8.63;4.75;;;19.80;62.90;;;;;;5068912;28;20711;-64
2023/10/10 12:54:13;;;;;;;6.70;4.50;;;19.70;63.10;;;;;;5069082;28;20241;-64
2023/10/10 12:56:48;;;;;;;12.02;4.70;;;19.80;63.20;;;;;;5067630;28;20710;-63
2023/10/10 12:59:51;;;;;;;6.20;4.30;;;19.80;63.10;;;;;;5069206;28;20241;-63
2023/10/10 13:02:25;;;;;;;6.03;4.45;;;19.80;63.10;;;;;;4965342;28;20358;-61
2023/10/10 13:04:53;;;;;;;8.80;4.35;;;19.80;63.10;;;;;;4964258;28;20576;-60
2023/10/10 13:07:21;;;;;;;7.28;4.32;;;19.80;63.20;;;;;;4967634;28;20207;-63
2023/10/10 13:09:49;;;;;;;6.95;4.72;;;19.80;63.40;;;;;;4967480;28;20265;-63
2023/10/10 13:12:27;;;;;;;7.38;4.53;;;19.90;63.60;;;;;;4966634;28;20199;-63
2023/10/10 13:15:16;;;;;;;6.60;4.45;;;19.80;63.50;;;;;;4967482;28;20218;-63
2023/10/10 13:17:53;;;;;;;6.38;4.97;;;19.80;63.50;;;;;;4967718;28;20210;-63
2023/10/10 13:20:21;;;;;;;7.45;4.85;;;19.90;63.60;;;;;;4972447;28;20230;-64
2023/10/10 13:22:50;;;;;;;6.95;4.45;;;19.90;63.70;;;;;;4967682;28;20195;-63
2023/10/10 13:25:19;;;;;;;8.07;4.57;;;19.90;63.70;;;;;;4967334;28;20225;-62
2023/10/10 13:27:49;;;;;;;7.00;4.80;;;19.80;63.60;;;;;;4967971;28;20241;-63
2023/10/10 13:30:16;;;;;;;8.40;5.00;;;19.90;63.70;;;;;;4966238;28;20377;-63
2023/10/10 13:32:45;;;;;;;7.80;5.00;;;19.90;63.70;;;;;;4967228;28;20199;-63
2023/10/10 13:35:14;;;;;;;8.85;5.05;;;19.90;63.70;;;;;;4966116;28;20230;-63
2023/10/10 13:37:43;;;;;;;8.35;4.97;;;19.90;63.80;;;;;;4958600;28;20207;-64
2023/10/10 13:40:21;;;;;;;8.23;5.18;;;20.00;63.90;;;;;;5044676;28;20229;-63
2023/10/10 13:42:49;;;;;;;6.65;5.13;;;20.00;63.80;;;;;;5063917;28;20213;-63
2023/10/10 13:45:22;;;;;;;6.40;5.13;;;19.90;63.80;;;;;;5058861;28;20234;-61
2023/10/10 13:47:49;;;;;;;7.03;4.93;;;20.00;63.90;;;;;;5027975;28;20199;-60
2023/10/10 13:50:40;;;;;;;9.25;5.20;;;19.90;64.10;;;;;;5067402;28;20280;-61
2023/10/10 13:53:12;;;;;;;11.57;5.20;;;19.90;64.40;;;;;;5065428;28;20214;-61
2023/10/10 13:58:26;;;;;;;7.03;5.03;;;20.00;64.70;;;;;;5063270;28;20210;-60
2023/10/10 14:00:55;;;;;;;9.40;5.43;;;20.00;64.90;;;;;;5055285;28;21620;-58
2023/10/10 14:03:45;;;;;;;8.95;5.45;;;20.00;64.70;;;;;;5065068;28;20770;-62
2023/10/10 14:06:19;;;;;;;7.85;4.70;;;20.00;64.70;;;;;;5063090;28;20238;-62
2023/10/10 14:08:49;;;;;;;8.45;5.45;;;20.00;64.70;;;;;;5059145;28;20699;-62
2023/10/10 14:11:22;;;;;;;6.57;4.97;;;20.00;64.70;;;;;;5055366;28;20238;-61
2023/10/10 14:13:51;;;;;;;8.00;5.57;;;20.00;64.80;;;;;;5063992;28;20228;-61
2023/10/10 14:16:22;;;;;;;9.35;5.68;;;20.00;64.70;;;;;;5065457;28;20242;-61
2023/10/10 14:21:47;;;;;;;11.40;5.47;;;20.00;64.80;;;;;;4978618;28;20603;-63
2023/10/10 14:24:22;;;;;;;10.82;5.38;;;20.00;64.90;;;;;;5008325;28;20272;-62
2023/10/10 14:26:59;;;;;;;9.40;5.63;;;20.00;65.20;;;;;;5027054;28;20309;-62
2023/10/10 14:29:40;;;;;;;11.75;6.47;;;20.00;65.30;;;;;;5060225;28;20226;-62
2023/10/10 14:32:10;;;;;;;7.30;5.15;;;20.00;65.10;;;;;;5062768;28;20228;-60
2023/10/10 14:34:42;;;;;;;13.90;5.47;;;20.00;65.20;;;;;;5057998;28;20226;-62
2023/10/10 14:37:15;;;;;;;8.05;6.00;;;20.00;65.20;;;;;;4980682;28;20226;-59
2023/10/10 14:39:51;;;;;;;10.75;5.70;;;20.00;66.00;;;;;;5063220;28;20743;-63
2023/10/10 14:42:24;;;;;;;11.50;5.68;;;20.00;65.20;;;;;;5065519;28;20222;-62
2023/10/10 14:44:55;;;;;;;9.68;5.97;;;20.10;65.30;;;;;;5045711;28;20222;-60
2023/10/10 14:50:14;;;;;;;12.48;5.50;;;20.10;65.40;;;;;;5049096;28;20211;-59
2023/10/10 14:52:54;;;;;;;7.18;5.50;;;20.10;65.50;;;;;;5038648;28;20228;-63
2023/10/10 14:55:30;;;;;;;8.52;5.40;;;20.10;65.50;;;;;;4984469;28;20230;-62
2023/10/10 14:58:09;;;;;;;10.82;6.18;;;20.10;65.40;;;;;;5055594;28;20203;-60
2023/10/10 15:00:40;;;;;;;9.77;6.10;;;20.10;65.40;;;;;;5008871;28;20226;-61
2023/10/10 15:03:12;;;;;;;10.63;5.88;;;20.20;65.50;;;;;;5038199;28;20217;-61
2023/10/10 15:08:59;;;;;;;11.23;5.68;;;20.20;65.40;;;;;;5047947;28;20341;-62
2023/10/10 15:11:30;;;;;;;10.88;6.20;;;20.20;65.30;;;;;;5051017;28;20383;-63
2023/10/10 15:13:59;;;;;;;8.95;6.00;;;20.20;65.40;;;;;;5051564;28;20301;-63
2023/10/10 15:16:27;;;;;;;8.05;5.85;;;20.20;65.40;;;;;;5062040;28;20209;-62
2023/10/10 15:21:40;;;;;;;8.13;5.35;;;20.20;65.40;;;;;;5055117;28;20289;-66
2023/10/10 15:24:11;;;;;;;9.52;5.68;;;20.20;65.30;;;;;;5054918;28;20316;-62
2023/10/10 15:26:39;;;;;;;9.23;5.70;;;20.20;65.50;;;;;;5052896;28;20198;-62
2023/10/10 15:29:10;;;;;;;10.68;5.38;;;20.20;65.50;;;;;;5061477;28;20240;-63
2023/10/10 15:31:39;;;;;;;11.20;5.65;;;20.20;65.50;;;;;;5058160;28;20213;-63
2023/10/10 15:34:10;;;;;;;7.03;5.22;;;20.20;65.40;;;;;;5060144;28;20693;-61
2023/10/10 15:36:38;;;;;;;7.90;5.60;;;20.20;65.40;;;;;;5060695;28;20206;-63
2023/10/10 15:39:09;;;;;;;9.70;5.75;;;20.20;65.60;;;;;;5062053;28;20327;-63
2023/10/10 15:41:38;;;;;;;13.02;5.85;;;20.20;65.50;;;;;;5053211;28;20731;-63
2023/10/10 15:46:58;;;;;;;9.18;5.57;;;20.20;65.40;;;;;;4974370;28;20213;-62
2023/10/10 15:49:27;;;;;;;10.95;5.90;;;20.10;65.40;;;;;;4973806;28;20233;-63
2023/10/10 15:51:56;;;;;;;15.02;5.60;;;20.10;65.40;;;;;;5062094;28;20199;-63
2023/10/10 15:54:29;;;;;;;8.75;5.38;;;20.10;65.40;;;;;;5062538;28;20677;-63
2023/10/10 15:56:56;;;;;;;8.90;6.03;;;20.10;65.40;;;;;;5058294;28;20194;-63
2023/10/10 15:59:27;;;;;;;9.00;5.70;;;20.10;65.40;;;;;;5059535;28;20226;-62
2023/10/10 16:01:56;;;;;;;10.60;5.60;;;20.10;65.50;;;;;;5055928;28;20277;-63
2023/10/10 16:04:26;;;;;;;9.30;5.78;;;20.10;65.50;;;;;;5061505;28;20712;-63
2023/10/10 16:06:53;;;;;;;7.07;5.82;;;20.10;65.60;;;;;;5063893;28;20719;-63
2023/10/10 16:09:29;;;;;;;7.70;5.85;;;20.10;65.60;;;;;;5068461;28;20226;-63
2023/10/10 16:11:58;;;;;;;7.60;4.97;;;20.10;65.50;;;;;;5068784;28;20190;-63
2023/10/10 16:14:28;;;;;;;7.10;5.55;;;20.00;65.50;;;;;;5069571;28;20241;-63
2023/10/10 16:16:55;;;;;;;8.88;5.70;;;20.00;65.60;;;;;;5068927;28;20194;-63
2023/10/10 16:19:25;;;;;;;9.35;6.20;;;20.10;65.60;;;;;;5069499;28;20211;-63
2023/10/10 16:21:54;;;;;;;8.30;6.18;;;20.00;65.50;;;;;;5069173;28;20198;-62
2023/10/10 16:24:26;;;;;;;10.77;5.97;;;20.00;65.50;;;;;;5070530;28;20226;-63
2023/10/10 16:26:58;;;;;;;11.55;6.03;;;20.00;65.60;;;;;;5069428;28;20194;-63
2023/10/10 16:29:32;;;;;;;8.35;5.78;;;20.00;65.80;;;;;;5059384;28;20234;-62
2023/10/10 16:32:00;;;;;;;9.07;6.22;;;20.00;65.70;;;;;;5060062;28;20290;-63
2023/10/10 16:37:09;;;;;;;10.50;6.30;;;20.00;65.90;;;;;;5068490;28;20301;-63
2023/10/10 16:39:38;;;;;;;8.85;5.90;;;20.00;65.90;;;;;;5070033;28;20226;-63
2023/10/10 16:45:10;;;;;;;8.13;5.85;;;20.00;65.90;;;;;;5025434;28;20198;-62
2023/10/10 16:48:22;;;;;;;9.75;5.78;;;20.00;65.90;;;;;;5069694;28;20182;-62
2023/10/10 16:50:55;;;;;;;10.73;6.53;;;20.00;66.00;;;;;;5061737;28;20210;-62
2023/10/10 16:53:23;;;;;;;18.50;6.50;;;20.00;66.00;;;;;;5069585;28;20225;-62